Time;durP1;ratioP1;P1;durP2;ratioP2;P2;SDS_P1;SDS_P2;PMS_P1;PMS_P2;Temp;Humidity;BMP_temperature;BMP_pressure;BME280_temperature;BME280_humidity;BME280_pressure;Samples;Min_cycle;Max_cycle;Signal;HPM_P1;HPM_P2
2021/06/21 05:30:56;;;;;;;10.50;5.15;;;13.80;99.90;;;;;;3626232;39;20398;-87
2021/06/21 05:33:23;;;;;;;18.48;5.55;;;13.80;99.90;;;;;;3608767;39;20058;-87
2021/06/21 05:35:48;;;;;;;13.05;6.10;;;13.80;99.90;;;;;;3612492;39;20380;-86
2021/06/21 05:38:14;;;;;;;7.95;3.85;;;13.60;99.90;;;;;;3614755;39;20051;-88
2021/06/21 05:40:40;;;;;;;8.73;3.80;;;13.60;99.90;;;;;;3611232;39;20046;-87
2021/06/21 05:43:05;;;;;;;9.15;4.20;;;13.60;99.90;;;;;;3603962;39;20047;-88
2021/06/21 05:45:31;;;;;;;7.80;3.67;;;13.60;99.90;;;;;;3604189;39;20048;-89
2021/06/21 05:47:57;;;;;;;9.57;4.32;;;13.50;99.90;;;;;;3606485;39;20066;-85
2021/06/21 05:50:23;;;;;;;8.38;3.30;;;13.60;99.90;;;;;;3609742;39;20055;-87
2021/06/21 05:52:49;;;;;;;11.93;4.07;;;13.50;99.90;;;;;;3607616;39;20043;-86
2021/06/21 05:55:18;;;;;;;8.43;4.60;;;13.50;99.90;;;;;;3607652;39;20048;-87
2021/06/21 05:57:45;;;;;;;11.70;4.72;;;13.50;99.90;;;;;;3614141;39;20101;-90
2021/06/21 06:00:11;;;;;;;12.80;4.50;;;13.40;99.90;;;;;;3619838;39;20039;-88
2021/06/21 06:02:38;;;;;;;7.85;4.07;;;13.50;99.90;;;;;;3611331;39;20211;-85
2021/06/21 06:05:04;;;;;;;6.32;4.00;;;13.50;99.90;;;;;;3609532;39;20417;-85
2021/06/21 06:07:30;;;;;;;11.02;4.28;;;13.70;99.90;;;;;;3606543;39;20390;-86
2021/06/21 06:09:57;;;;;;;9.50;4.18;;;13.70;99.90;;;;;;3603321;39;20156;-86
2021/06/21 06:12:24;;;;;;;9.13;3.60;;;13.50;99.90;;;;;;3603305;39;20075;-86
2021/06/21 06:14:50;;;;;;;8.57;4.38;;;13.70;99.90;;;;;;3602481;39;20052;-84
2021/06/21 06:17:16;;;;;;;7.50;3.88;;;13.60;99.90;;;;;;3602469;39;20059;-84
2021/06/21 06:19:42;;;;;;;7.90;3.20;;;13.70;99.90;;;;;;3603011;39;20057;-85
2021/06/21 06:22:08;;;;;;;11.68;3.55;;;13.90;99.90;;;;;;3606896;39;20035;-84
2021/06/21 06:24:34;;;;;;;8.88;3.10;;;13.80;99.90;;;;;;3611865;39;20215;-84
2021/06/21 06:27:00;;;;;;;9.63;3.47;;;13.90;99.90;;;;;;3603805;39;20124;-84
2021/06/21 06:29:29;;;;;;;15.23;3.20;;;13.70;99.90;;;;;;3605296;39;20082;-85
2021/06/21 06:31:55;;;;;;;13.00;3.70;;;13.80;99.90;;;;;;3610345;39;20048;-85
2021/06/21 06:34:23;;;;;;;11.73;4.03;;;13.60;99.90;;;;;;3603331;39;20071;-84
2021/06/21 06:36:49;;;;;;;11.25;4.20;;;13.60;99.90;;;;;;3608383;39;20397;-84
2021/06/21 06:39:15;;;;;;;14.52;4.30;;;13.50;99.90;;;;;;3612263;39;20359;-84
2021/06/21 06:41:41;;;;;;;12.55;3.58;;;13.40;99.90;;;;;;3600232;39;20044;-84
2021/06/21 06:44:07;;;;;;;13.00;4.25;;;13.40;99.90;;;;;;3594394;39;20406;-85
2021/06/21 06:46:33;;;;;;;16.42;3.83;;;13.50;99.90;;;;;;3595964;39;20363;-85
2021/06/21 06:48:59;;;;;;;12.25;3.03;;;13.40;99.90;;;;;;3602959;39;20060;-86
2021/06/21 06:51:28;;;;;;;15.48;3.55;;;13.40;99.90;;;;;;3597638;39;20303;-84
2021/06/21 06:54:03;;;;;;;12.18;3.70;;;13.40;99.90;;;;;;3597115;39;20052;-84
2021/06/21 06:59:13;;;;;;;11.55;3.67;;;13.40;99.90;;;;;;3595406;39;20075;-85
2021/06/21 07:01:39;;;;;;;17.25;3.78;;;13.50;99.90;;;;;;3595883;39;20599;-84
2021/06/21 07:04:05;;;;;;;13.30;4.05;;;13.50;99.90;;;;;;3602395;39;20104;-82
2021/06/21 07:06:32;;;;;;;13.77;3.85;;;13.60;99.90;;;;;;3605082;39;20047;-81
2021/06/21 07:08:58;;;;;;;10.80;3.83;;;13.70;99.90;;;;;;3596031;39;20136;-85
2021/06/21 07:11:23;;;;;;;11.95;3.88;;;13.50;99.90;;;;;;3596292;39;20056;-84
2021/06/21 07:13:49;;;;;;;13.63;3.55;;;13.60;99.90;;;;;;3600024;39;20124;-85
2021/06/21 07:16:15;;;;;;;12.98;4.72;;;13.60;99.90;;;;;;3601375;39;20052;-85
2021/06/21 07:18:41;;;;;;;11.80;3.53;;;13.70;99.90;;;;;;3598812;39;20070;-86
2021/06/21 07:21:07;;;;;;;12.85;3.90;;;13.60;99.90;;;;;;3607386;39;20096;-83
2021/06/21 07:23:32;;;;;;;13.98;4.55;;;13.60;99.90;;;;;;3602179;39;20314;-84
2021/06/21 07:25:59;;;;;;;10.90;3.78;;;13.70;99.90;;;;;;3595439;39;20159;-83
2021/06/21 07:28:25;;;;;;;13.00;3.67;;;13.70;99.90;;;;;;3600602;39;20047;-84
2021/06/21 07:30:51;;;;;;;16.10;4.32;;;13.60;99.90;;;;;;3602293;39;20036;-83
2021/06/21 07:33:17;;;;;;;22.42;6.32;;;13.50;99.90;;;;;;3601402;39;20330;-85
2021/06/21 07:35:43;;;;;;;12.93;3.78;;;13.60;99.90;;;;;;3595030;40;20096;-82
2021/06/21 07:38:10;;;;;;;22.92;6.10;;;13.60;99.90;;;;;;3594314;39;20048;-83
2021/06/21 07:40:40;;;;;;;16.73;4.55;;;13.70;99.90;;;;;;3603922;39;20433;-83
2021/06/21 07:43:05;;;;;;;15.15;4.95;;;13.60;99.90;;;;;;3598408;39;20052;-84
2021/06/21 07:45:31;;;;;;;12.63;3.88;;;13.70;99.90;;;;;;3596847;39;20072;-85
2021/06/21 07:47:58;;;;;;;14.85;4.82;;;13.70;99.90;;;;;;3596619;39;20105;-85
2021/06/21 07:50:29;;;;;;;13.50;4.45;;;13.90;99.90;;;;;;3599227;39;20105;-82
2021/06/21 07:52:55;;;;;;;17.42;4.13;;;13.80;99.90;;;;;;3596647;39;20128;-81
2021/06/21 07:55:28;;;;;;;14.85;4.53;;;13.80;99.90;;;;;;3597406;39;20161;-84
2021/06/21 07:57:57;;;;;;;18.15;4.82;;;13.80;99.90;;;;;;3597144;39;20060;-83
2021/06/21 08:00:24;;;;;;;9.82;3.13;;;14.00;99.90;;;;;;3594825;39;20140;-81
2021/06/21 08:02:54;;;;;;;11.55;3.28;;;13.80;99.90;;;;;;3600714;39;20044;-81
2021/06/21 08:05:21;;;;;;;11.27;3.25;;;13.80;99.90;;;;;;3594774;39;20055;-80
2021/06/21 08:07:47;;;;;;;17.15;3.50;;;13.70;99.90;;;;;;3596739;39;20141;-83
2021/06/21 08:10:14;;;;;;;15.73;3.50;;;13.60;99.90;;;;;;3593824;39;20044;-83
2021/06/21 08:12:40;;;;;;;8.10;2.83;;;13.60;99.90;;;;;;3596689;39;20090;-84
2021/06/21 08:15:07;;;;;;;16.75;3.35;;;13.40;99.90;;;;;;3594354;39;20056;-81
2021/06/21 08:17:33;;;;;;;12.77;2.95;;;13.50;99.90;;;;;;3594886;39;20052;-81
2021/06/21 08:20:06;;;;;;;12.82;2.78;;;13.40;99.90;;;;;;3600842;39;20051;-87
2021/06/21 08:22:32;;;;;;;6.82;2.10;;;13.50;99.90;;;;;;3602881;39;20387;-80
2021/06/21 08:24:57;;;;;;;9.60;3.03;;;13.50;99.90;;;;;;3597814;39;20092;-84
2021/06/21 08:27:23;;;;;;;11.90;3.15;;;13.50;99.90;;;;;;3597044;39;20137;-82
2021/06/21 08:29:49;;;;;;;7.32;2.50;;;13.50;99.90;;;;;;3594689;39;20060;-79
2021/06/21 08:32:20;;;;;;;13.93;2.85;;;13.60;99.90;;;;;;3599163;39;20204;-81
2021/06/21 08:34:46;;;;;;;11.55;2.92;;;13.50;99.90;;;;;;3595623;39;20039;-82
2021/06/21 08:37:12;;;;;;;6.15;2.90;;;13.60;99.90;;;;;;3594747;39;20074;-83
2021/06/21 08:39:38;;;;;;;16.67;3.63;;;13.60;99.90;;;;;;3597631;39;20048;-80
2021/06/21 08:42:05;;;;;;;9.32;3.05;;;13.60;99.90;;;;;;3596751;39;20047;-79
2021/06/21 08:44:35;;;;;;;9.60;2.22;;;13.60;99.90;;;;;;3601313;39;20044;-80
2021/06/21 08:47:02;;;;;;;11.45;2.55;;;13.70;99.90;;;;;;3598194;39;20096;-80
2021/06/21 08:49:31;;;;;;;7.63;2.30;;;13.60;99.90;;;;;;3597538;39;20460;-79
2021/06/21 08:51:58;;;;;;;12.48;2.72;;;13.60;99.90;;;;;;3602514;39;20054;-78
2021/06/21 08:54:24;;;;;;;7.32;2.75;;;13.70;99.90;;;;;;3605471;39;20169;-80
2021/06/21 08:56:49;;;;;;;8.88;3.00;;;13.90;99.90;;;;;;3605239;39;20055;-79
2021/06/21 08:59:15;;;;;;;14.70;3.30;;;13.80;99.90;;;;;;3604484;39;20047;-80
2021/06/21 09:01:41;;;;;;;7.50;2.53;;;13.80;99.90;;;;;;3605161;39;20433;-81
2021/06/21 09:04:11;;;;;;;6.85;2.47;;;13.80;99.90;;;;;;3601189;39;20129;-78
2021/06/21 09:06:39;;;;;;;10.13;2.55;;;13.80;99.90;;;;;;3599882;39;20329;-79
2021/06/21 09:09:06;;;;;;;7.60;2.50;;;13.80;99.90;;;;;;3604520;39;20044;-82
2021/06/21 09:11:46;;;;;;;10.23;2.53;;;13.80;99.90;;;;;;3604524;39;20054;-79
2021/06/21 09:14:30;;;;;;;10.68;2.97;;;13.90;99.90;;;;;;3603371;39;20087;-80
2021/06/21 09:16:56;;;;;;;13.32;2.60;;;14.00;99.90;;;;;;3604068;39;20054;-81
2021/06/21 09:19:22;;;;;;;8.23;2.25;;;14.00;99.90;;;;;;3601143;39;20384;-80
2021/06/21 09:21:48;;;;;;;9.40;3.58;;;14.10;99.90;;;;;;3601169;39;20039;-81
2021/06/21 09:24:19;;;;;;;6.82;2.40;;;14.00;99.90;;;;;;3603042;39;20306;-80
2021/06/21 09:26:47;;;;;;;10.60;2.88;;;14.00;99.90;;;;;;3604425;39;20063;-81
2021/06/21 09:29:13;;;;;;;13.98;2.88;;;14.00;99.90;;;;;;3601373;39;20079;-81
2021/06/21 09:31:56;;;;;;;8.45;2.10;;;14.10;99.90;;;;;;3604558;39;20031;-80
2021/06/21 09:34:22;;;;;;;;;;;14.00;99.90;;;;;;3605300;39;20636;-83
2021/06/21 09:36:48;;;;;;;9.07;2.40;;;14.10;99.90;;;;;;3604956;39;19938;-81
2021/06/21 09:39:26;;;;;;;15.32;2.80;;;14.10;99.90;;;;;;3594898;39;20056;-82
2021/06/21 09:42:24;;;;;;;8.95;2.53;;;14.10;99.90;;;;;;3596108;39;20104;-81
2021/06/21 09:44:55;;;;;;;7.88;2.60;;;14.20;99.90;;;;;;3593780;39;20051;-83
2021/06/21 09:47:41;;;;;;;9.07;2.42;;;14.10;99.90;;;;;;3596093;39;20039;-82
2021/06/21 09:50:18;;;;;;;12.40;2.70;;;14.10;99.90;;;;;;3604700;39;20382;-83
2021/06/21 09:52:46;;;;;;;8.02;2.33;;;14.10;99.90;;;;;;3604881;39;20049;-82
2021/06/21 09:55:23;;;;;;;10.75;2.53;;;14.20;99.90;;;;;;3599566;39;20423;-82
2021/06/21 09:58:07;;;;;;;11.98;2.45;;;14.10;99.90;;;;;;3594282;39;20074;-82
2021/06/21 10:00:34;;;;;;;13.90;4.43;;;14.20;99.90;;;;;;3601731;39;20128;-82
2021/06/21 10:03:19;;;;;;;8.10;2.85;;;14.10;99.90;;;;;;3595951;39;20075;-82
2021/06/21 10:06:09;;;;;;;14.30;2.88;;;14.10;99.90;;;;;;3603047;39;20413;-82
2021/06/21 10:08:46;;;;;;;8.02;2.63;;;14.20;99.90;;;;;;3606268;39;20055;-82
2021/06/21 10:11:32;;;;;;;6.90;2.72;;;14.20;99.90;;;;;;3601707;39;20105;-81
2021/06/21 10:13:59;;;;;;;10.68;3.22;;;14.20;99.90;;;;;;3598746;39;20506;-82
2021/06/21 10:16:26;;;;;;;8.18;2.75;;;14.30;99.90;;;;;;3595324;39;20056;-80
2021/06/21 10:18:52;;;;;;;6.88;2.83;;;14.30;99.90;;;;;;3596457;39;20424;-81
2021/06/21 10:21:18;;;;;;;15.93;2.83;;;14.40;99.90;;;;;;3599453;39;20051;-83
2021/06/21 10:23:43;;;;;;;11.75;2.97;;;14.30;99.90;;;;;;3597399;39;20155;-82
2021/06/21 10:26:10;;;;;;;11.35;3.40;;;14.50;99.90;;;;;;3596746;39;20040;-82
2021/06/21 10:28:36;;;;;;;11.75;3.63;;;14.30;99.90;;;;;;3599695;39;20043;-81
2021/06/21 10:31:03;;;;;;;18.42;4.85;;;14.40;99.90;;;;;;3604911;39;20388;-82
2021/06/21 10:33:30;;;;;;;14.10;3.67;;;14.40;99.90;;;;;;3608522;39;20058;-81
2021/06/21 10:36:00;;;;;;;12.95;4.00;;;14.30;99.90;;;;;;3602727;39;20455;-81
2021/06/21 10:38:26;;;;;;;13.20;3.67;;;14.30;99.90;;;;;;3596443;39;20044;-82
2021/06/21 10:40:59;;;;;;;10.98;4.60;;;14.40;99.90;;;;;;3599633;39;20634;-82
2021/06/21 10:43:47;;;;;;;11.03;3.77;;;14.50;99.90;;;;;;3595727;39;20054;-83
2021/06/21 10:46:29;;;;;;;14.65;3.90;;;14.50;99.90;;;;;;3596770;39;20411;-81
2021/06/21 10:48:58;;;;;;;11.15;4.00;;;14.60;99.90;;;;;;3597307;39;20039;-83
2021/06/21 10:51:34;;;;;;;11.82;3.28;;;14.60;99.90;;;;;;3597751;39;20099;-84
2021/06/21 10:54:01;;;;;;;16.42;3.00;;;14.70;99.90;;;;;;3601788;39;20393;-82
2021/06/21 10:56:45;;;;;;;11.93;3.20;;;14.70;99.90;;;;;;3605015;39;20052;-79
2021/06/21 10:59:15;;;;;;;9.57;2.92;;;14.90;99.90;;;;;;3601404;39;20044;-86
2021/06/21 11:01:47;;;;;;;17.42;3.90;;;15.00;99.90;;;;;;3602836;39;20070;-86
2021/06/21 11:04:31;;;;;;;10.50;2.85;;;15.10;99.90;;;;;;3603085;39;20421;-84
2021/06/21 11:07:11;;;;;;;8.38;2.20;;;15.10;99.90;;;;;;3601278;39;20057;-86
2021/06/21 11:09:49;;;;;;;8.85;2.58;;;15.00;99.90;;;;;;3598280;39;20056;-86
2021/06/21 11:12:21;;;;;;;10.00;2.65;;;14.90;99.90;;;;;;3600699;39;20060;-85
2021/06/21 11:15:12;;;;;;;8.13;2.55;;;15.00;99.90;;;;;;3593672;39;20068;-85
2021/06/21 11:17:49;;;;;;;13.07;3.00;;;15.10;99.90;;;;;;3599567;39;20052;-85
2021/06/21 11:20:40;;;;;;;11.07;2.95;;;15.20;99.90;;;;;;3597326;39;20064;-86
2021/06/21 11:23:13;;;;;;;9.35;2.15;;;15.20;99.90;;;;;;3597944;39;20048;-87
2021/06/21 11:25:49;;;;;;;14.40;3.33;;;15.10;99.90;;;;;;3600865;39;20137;-87
2021/06/21 11:28:38;;;;;;;11.80;2.85;;;15.30;99.90;;;;;;3609601;39;20059;-85
2021/06/21 11:31:18;;;;;;;14.25;3.60;;;15.40;99.90;;;;;;3601504;39;20056;-87
2021/06/21 11:33:57;;;;;;;12.93;2.88;;;15.20;99.90;;;;;;3598655;39;20063;-88
2021/06/21 11:36:44;;;;;;;19.77;6.88;;;15.30;99.90;;;;;;3597818;39;20062;-86
2021/06/21 11:39:27;;;;;;;15.85;4.55;;;15.20;99.90;;;;;;3601147;39;20056;-88
2021/06/21 11:42:03;;;;;;;17.67;5.93;;;15.20;99.90;;;;;;3601807;39;20056;-87
2021/06/21 11:44:44;;;;;;;15.63;4.07;;;14.90;99.90;;;;;;3599761;39;20054;-86
2021/06/21 11:47:20;;;;;;;23.52;4.45;;;14.80;99.90;;;;;;3601802;39;20052;-88
2021/06/21 11:49:49;;;;;;;18.42;5.22;;;14.70;99.90;;;;;;3600567;39;20052;-88
2021/06/21 11:52:21;;;;;;;13.38;3.47;;;14.80;99.90;;;;;;3602007;39;20067;-86
2021/06/21 11:54:49;;;;;;;17.58;4.80;;;14.80;99.90;;;;;;3601290;39;20046;-88
2021/06/21 11:57:17;;;;;;;15.48;4.07;;;14.70;99.90;;;;;;3598538;39;20051;-87
2021/06/21 11:59:48;;;;;;;18.83;6.10;;;14.60;99.90;;;;;;3598546;39;20067;-85
2021/06/21 12:02:16;;;;;;;15.00;4.43;;;14.70;99.90;;;;;;3597217;39;20318;-87
2021/06/21 12:04:44;;;;;;;14.70;4.03;;;14.70;99.90;;;;;;3605426;39;20047;-85
2021/06/21 12:07:27;;;;;;;15.30;4.25;;;14.60;99.90;;;;;;3608625;39;20371;-87
2021/06/21 12:09:54;;;;;;;14.85;4.53;;;14.60;99.90;;;;;;3602476;39;20460;-86
2021/06/21 12:12:28;;;;;;;21.33;4.25;;;14.60;99.90;;;;;;3597922;39;20555;-87
2021/06/21 12:14:55;;;;;;;17.70;4.60;;;14.50;99.90;;;;;;3599475;39;20051;-89
2021/06/21 12:17:29;;;;;;;11.18;3.63;;;14.60;99.90;;;;;;3589133;39;20050;-87
2021/06/21 12:20:17;;;;;;;12.50;4.65;;;14.60;99.90;;;;;;3596648;39;20060;-86
2021/06/21 12:22:52;;;;;;;15.73;4.82;;;14.60;99.90;;;;;;3590906;39;20716;-85
2021/06/21 12:25:25;;;;;;;16.67;4.50;;;14.60;99.90;;;;;;3599556;39;20166;-86
2021/06/21 12:27:54;;;;;;;;;;;14.60;99.90;;;;;;3597394;39;20061;-87
2021/06/21 12:30:33;;;;;;;15.63;4.78;;;14.50;99.90;;;;;;3597245;39;19935;-87
2021/06/21 12:32:59;;;;;;;18.00;4.15;;;14.50;99.90;;;;;;3595954;39;20146;-86
2021/06/21 12:35:25;;;;;;;14.48;4.28;;;14.40;99.90;;;;;;3597030;39;20308;-87
2021/06/21 12:37:50;;;;;;;15.25;4.93;;;14.40;99.90;;;;;;3597273;39;20059;-87
2021/06/21 12:40:26;;;;;;;13.23;4.07;;;14.30;99.90;;;;;;3602615;39;20048;-86
2021/06/21 12:42:51;;;;;;;16.88;3.95;;;14.30;99.90;;;;;;3597120;39;20049;-86
2021/06/21 12:45:24;;;;;;;15.77;4.90;;;14.40;99.90;;;;;;3597627;39;20052;-87
2021/06/21 12:47:55;;;;;;;22.10;5.10;;;14.40;99.90;;;;;;3598340;39;20058;-89
2021/06/21 12:50:23;;;;;;;17.33;4.40;;;14.30;99.90;;;;;;3609446;39;20041;-85
2021/06/21 12:52:51;;;;;;;18.73;4.15;;;14.30;99.90;;;;;;3613044;39;20056;-87
2021/06/21 12:55:24;;;;;;;10.20;3.60;;;14.30;99.90;;;;;;3606924;39;20051;-88
2021/06/21 12:57:54;;;;;;;15.27;4.67;;;14.40;99.90;;;;;;3602417;39;20063;-89
2021/06/21 13:00:36;;;;;;;18.40;4.70;;;14.40;99.90;;;;;;3599252;39;20564;-88
2021/06/21 13:03:08;;;;;;;15.65;4.05;;;14.30;99.90;;;;;;3599099;39;20060;-88
2021/06/21 13:05:40;;;;;;;16.63;5.43;;;14.50;99.90;;;;;;3602739;39;20051;-88
2021/06/21 13:08:07;;;;;;;14.55;4.95;;;14.50;99.90;;;;;;3598298;40;20055;-90
2021/06/21 13:10:33;;;;;;;22.25;4.80;;;14.70;99.90;;;;;;3604262;39;20067;-89
2021/06/21 13:13:03;;;;;;;18.27;5.03;;;14.60;99.90;;;;;;3612019;39;20377;-89
2021/06/21 13:15:42;;;;;;;22.92;5.20;;;14.70;99.90;;;;;;3610153;39;20173;-88
2021/06/21 13:18:09;;;;;;;15.77;5.20;;;14.70;99.90;;;;;;3606162;39;20044;-88
2021/06/21 13:20:35;;;;;;;17.17;5.00;;;14.90;99.90;;;;;;3604219;39;20058;-88
2021/06/21 13:23:01;;;;;;;20.83;7.47;;;14.70;99.90;;;;;;3599039;39;20048;-88
2021/06/21 13:25:36;;;;;;;20.65;6.32;;;14.90;99.90;;;;;;3593078;39;20052;-88
2021/06/21 13:28:04;;;;;;;20.92;5.18;;;14.80;99.90;;;;;;3600118;39;20059;-88
2021/06/21 13:30:36;;;;;;;14.93;5.45;;;15.00;99.90;;;;;;3609013;39;20051;-90
2021/06/21 13:33:09;;;;;;;17.13;5.15;;;15.00;99.90;;;;;;3607317;39;20051;-89
2021/06/21 13:35:37;;;;;;;12.23;4.43;;;15.00;99.90;;;;;;3606858;39;20059;-87
2021/06/21 13:38:07;;;;;;;16.20;5.20;;;15.00;99.90;;;;;;3604535;39;20043;-90
2021/06/21 13:40:33;;;;;;;11.45;4.13;;;14.80;99.90;;;;;;3609511;39;20050;-89
2021/06/21 13:43:01;;;;;;;15.00;3.80;;;14.90;99.90;;;;;;3606350;39;20567;-88
2021/06/21 13:45:35;;;;;;;11.65;4.35;;;15.00;99.90;;;;;;3597484;39;20052;-90
2021/06/21 13:48:11;;;;;;;15.50;3.65;;;14.80;99.90;;;;;;3597060;39;20082;-88
2021/06/21 13:50:41;;;;;;;15.68;4.40;;;14.70;99.90;;;;;;3602168;39;20055;-90
2021/06/21 13:53:23;;;;;;;16.90;4.55;;;14.70;99.90;;;;;;3602320;39;20055;-85
2021/06/21 13:55:49;;;;;;;11.90;4.03;;;14.60;99.90;;;;;;3600820;39;20096;-85
2021/06/21 13:58:15;;;;;;;19.67;3.72;;;14.60;99.90;;;;;;3604766;39;20074;-85
2021/06/21 14:00:45;;;;;;;13.68;4.05;;;14.70;99.90;;;;;;3597108;39;20479;-85
2021/06/21 14:03:29;;;;;;;17.98;4.07;;;14.50;99.90;;;;;;3599291;39;20043;-86
2021/06/21 14:06:04;;;;;;;15.02;3.72;;;14.60;99.90;;;;;;3594988;39;20052;-85
2021/06/21 14:08:30;;;;;;;13.10;3.08;;;14.60;99.90;;;;;;3594849;39;20058;-84
2021/06/21 14:11:01;;;;;;;15.75;3.30;;;14.70;99.90;;;;;;3596956;39;20475;-84
2021/06/21 14:13:27;;;;;;;9.93;3.72;;;14.80;99.90;;;;;;3606604;39;20279;-85
2021/06/21 14:15:54;;;;;;;11.23;3.75;;;14.80;99.90;;;;;;3605455;39;20067;-84
2021/06/21 14:18:20;;;;;;;13.50;4.20;;;14.50;99.90;;;;;;3603003;39;20108;-84
2021/06/21 14:20:46;;;;;;;10.00;3.22;;;14.60;99.90;;;;;;3605181;39;20087;-85
2021/06/21 14:23:13;;;;;;;14.68;3.85;;;14.50;99.90;;;;;;3598754;39;20079;-84
2021/06/21 14:25:43;;;;;;;17.25;4.75;;;14.30;99.90;;;;;;3608722;39;20043;-84
2021/06/21 14:28:09;;;;;;;13.80;3.30;;;14.30;99.90;;;;;;3600404;39;20052;-87
2021/06/21 14:30:37;;;;;;;10.70;3.38;;;14.30;99.90;;;;;;3605688;39;20072;-87
2021/06/21 14:33:04;;;;;;;20.63;4.45;;;14.10;99.90;;;;;;3609702;39;20086;-88
2021/06/21 14:35:29;;;;;;;14.95;4.32;;;14.10;99.90;;;;;;3604965;39;20062;-88
2021/06/21 14:37:56;;;;;;;15.75;4.72;;;14.10;99.90;;;;;;3605270;39;20044;-85
2021/06/21 14:40:21;;;;;;;10.05;3.70;;;14.30;99.90;;;;;;3601321;39;20360;-88
2021/06/21 14:42:47;;;;;;;12.18;4.00;;;14.30;99.90;;;;;;3605360;39;20425;-89
2021/06/21 14:45:13;;;;;;;14.15;3.83;;;14.50;99.90;;;;;;3609224;39;20054;-91
2021/06/21 14:47:39;;;;;;;9.25;4.03;;;14.30;99.90;;;;;;3606713;39;20078;-88
2021/06/21 14:52:33;;;;;;;12.98;4.28;;;14.30;99.90;;;;;;3607379;39;20380;-88
2021/06/21 14:55:04;;;;;;;14.30;4.30;;;14.20;99.90;;;;;;3606616;39;20223;-90
2021/06/21 14:57:33;;;;;;;14.77;4.93;;;14.30;99.90;;;;;;3604886;39;20136;-88
2021/06/21 14:59:59;;;;;;;13.30;4.50;;;14.20;99.90;;;;;;3604834;39;20071;-88
2021/06/21 15:02:25;;;;;;;11.10;4.50;;;14.10;99.90;;;;;;3602169;39;20136;-87
2021/06/21 15:04:50;;;;;;;16.60;5.03;;;14.20;99.90;;;;;;3602241;39;20054;-88
2021/06/21 15:07:16;;;;;;;15.30;4.90;;;14.20;99.90;;;;;;3601289;39;20102;-88
2021/06/21 15:09:42;;;;;;;13.20;4.65;;;14.10;99.90;;;;;;3611799;39;20068;-88
2021/06/21 15:12:08;;;;;;;14.25;4.70;;;14.10;99.90;;;;;;3602510;39;20426;-86
2021/06/21 15:14:34;;;;;;;14.23;5.18;;;14.30;99.90;;;;;;3601055;39;20059;-86
2021/06/21 15:17:01;;;;;;;13.68;4.07;;;14.40;99.90;;;;;;3608495;39;20047;-88
2021/06/21 15:19:28;;;;;;;18.67;4.43;;;14.60;99.90;;;;;;3610288;39;20056;-88
2021/06/21 15:21:54;;;;;;;13.65;3.47;;;14.70;99.90;;;;;;3604853;39;20059;-86
2021/06/21 15:24:20;;;;;;;8.73;3.83;;;14.70;99.90;;;;;;3598580;39;20047;-88
2021/06/21 15:26:46;;;;;;;16.63;5.07;;;14.60;99.90;;;;;;3599729;39;20072;-87
2021/06/21 15:29:13;;;;;;;11.02;2.72;;;14.60;99.90;;;;;;3605890;39;20063;-86
2021/06/21 15:31:39;;;;;;;12.25;3.80;;;14.70;99.90;;;;;;3608051;39;20044;-88
2021/06/21 15:34:05;;;;;;;13.05;3.05;;;14.70;99.90;;;;;;3607946;39;20047;-86
2021/06/21 15:36:32;;;;;;;12.82;3.60;;;14.70;99.90;;;;;;3605939;39;20047;-86
2021/06/21 15:38:58;;;;;;;11.05;3.75;;;14.80;99.90;;;;;;3608971;39;20251;-86
2021/06/21 15:41:24;;;;;;;12.82;3.60;;;14.60;99.90;;;;;;3598989;39;20102;-86
2021/06/21 15:43:50;;;;;;;12.15;3.80;;;14.50;99.90;;;;;;3600509;39;20424;-86
2021/06/21 15:46:16;;;;;;;17.17;3.78;;;14.60;99.90;;;;;;3601672;39;20339;-87
2021/06/21 15:48:42;;;;;;;15.68;4.28;;;14.60;99.90;;;;;;3596362;39;20048;-88
2021/06/21 15:51:11;;;;;;;15.10;4.38;;;14.80;99.90;;;;;;3606414;39;20060;-87
2021/06/21 15:53:38;;;;;;;12.73;5.03;;;14.70;99.90;;;;;;3611229;39;20055;-85
2021/06/21 15:56:05;;;;;;;13.13;4.93;;;15.00;99.90;;;;;;3604375;39;20412;-87
2021/06/21 15:58:32;;;;;;;13.52;5.18;;;15.00;99.90;;;;;;3604236;39;20055;-88
2021/06/21 16:00:58;;;;;;;12.48;4.13;;;15.10;99.90;;;;;;3604330;39;20050;-87
2021/06/21 16:03:24;;;;;;;15.48;4.10;;;15.10;99.90;;;;;;3601625;39;20047;-86
2021/06/21 16:05:51;;;;;;;10.85;3.75;;;15.20;99.90;;;;;;3599962;39;20127;-87
2021/06/21 16:08:17;;;;;;;15.02;4.97;;;15.20;99.90;;;;;;3606164;39;20047;-87
2021/06/21 16:10:48;;;;;;;8.85;2.53;;;15.10;99.90;;;;;;3597418;39;20040;-89
2021/06/21 16:13:19;;;;;;;8.63;3.20;;;14.90;99.90;;;;;;3600120;39;20047;-88
2021/06/21 16:15:44;;;;;;;11.68;3.58;;;15.00;99.90;;;;;;3636299;22;20052;-70
2021/06/21 16:18:12;;;;;;;14.23;4.13;;;14.70;99.90;;;;;;3583360;40;20407;-70
2021/06/21 16:20:40;;;;;;;12.45;3.45;;;14.70;99.90;;;;;;3583190;40;20080;-70
2021/06/21 16:23:08;;;;;;;14.25;3.92;;;14.80;99.90;;;;;;3585281;40;20051;-72
2021/06/21 16:25:34;;;;;;;11.55;4.35;;;14.80;99.90;;;;;;3585762;40;20364;-70
2021/06/21 16:28:00;;;;;;;15.88;4.80;;;14.80;99.90;;;;;;3584255;40;20098;-70
2021/06/21 16:30:26;;;;;;;10.23;4.80;;;14.90;99.90;;;;;;3584843;40;20068;-71
2021/06/21 16:32:52;;;;;;;12.63;4.13;;;14.80;99.90;;;;;;3584789;40;20402;-70
2021/06/21 16:35:20;;;;;;;13.30;4.32;;;14.90;99.90;;;;;;3584359;40;20106;-71
2021/06/21 16:37:51;;;;;;;20.20;4.65;;;14.80;99.90;;;;;;3584155;40;20068;-71
2021/06/21 16:40:18;;;;;;;9.63;3.30;;;14.80;99.90;;;;;;3584907;40;20126;-70
2021/06/21 16:42:44;;;;;;;17.70;4.45;;;14.70;99.90;;;;;;3584251;40;20413;-71
2021/06/21 16:45:10;;;;;;;10.10;3.75;;;14.70;99.90;;;;;;3584410;40;20044;-71
2021/06/21 16:47:36;;;;;;;8.68;3.22;;;14.80;99.90;;;;;;3585535;40;20401;-70
2021/06/21 16:50:03;;;;;;;9.18;3.45;;;14.90;99.90;;;;;;3585370;40;20138;-71
2021/06/21 16:52:29;;;;;;;10.25;4.00;;;14.80;99.90;;;;;;3582821;40;20322;-70
2021/06/21 16:54:55;;;;;;;7.35;4.07;;;14.80;99.90;;;;;;3584429;40;20106;-70
2021/06/21 16:57:22;;;;;;;10.65;3.92;;;14.70;99.90;;;;;;3581198;40;20306;-71
2021/06/21 16:59:48;;;;;;;16.42;4.13;;;14.70;99.90;;;;;;3583852;40;20072;-70
2021/06/21 17:02:13;;;;;;;18.40;5.10;;;14.70;99.90;;;;;;3579230;40;20152;-70
2021/06/21 17:04:39;;;;;;;9.52;4.50;;;14.90;99.90;;;;;;3582203;40;20053;-70
2021/06/21 17:07:05;;;;;;;13.15;4.68;;;14.80;99.90;;;;;;3584319;40;20273;-70
2021/06/21 17:09:31;;;;;;;17.15;5.47;;;14.80;99.90;;;;;;3581088;40;20056;-70
2021/06/21 17:11:57;;;;;;;17.15;4.82;;;14.70;99.90;;;;;;3583486;40;20141;-70
2021/06/21 17:14:23;;;;;;;7.38;3.50;;;14.70;99.90;;;;;;3582002;40;20060;-70
2021/06/21 17:16:48;;;;;;;13.32;4.32;;;14.60;99.90;;;;;;3584744;40;20088;-71
2021/06/21 17:19:14;;;;;;;10.48;3.97;;;14.50;99.90;;;;;;3582071;40;20052;-69
2021/06/21 17:21:40;;;;;;;10.45;3.70;;;14.60;99.90;;;;;;3584926;40;20380;-68
2021/06/21 17:24:06;;;;;;;12.45;4.28;;;14.50;99.90;;;;;;3583954;40;20052;-70
2021/06/21 17:26:32;;;;;;;12.98;4.60;;;14.50;99.90;;;;;;3582430;40;20041;-70
2021/06/21 17:28:59;;;;;;;14.75;4.40;;;14.50;99.90;;;;;;3577430;40;20118;-70
2021/06/21 17:31:27;;;;;;;10.85;4.30;;;14.40;99.90;;;;;;3584174;40;20056;-69
2021/06/21 17:33:52;;;;;;;13.13;3.85;;;14.50;99.90;;;;;;3584516;40;20388;-69
2021/06/21 17:36:18;;;;;;;12.20;4.72;;;14.30;99.90;;;;;;3584202;40;20277;-71
2021/06/21 17:38:44;;;;;;;13.45;4.57;;;14.40;99.90;;;;;;3582848;40;20334;-69
2021/06/21 17:41:09;;;;;;;11.65;4.50;;;14.30;99.90;;;;;;3582484;40;20106;-68
2021/06/21 17:43:35;;;;;;;9.93;4.65;;;14.30;99.90;;;;;;3583424;40;20084;-68
2021/06/21 17:46:01;;;;;;;13.02;4.80;;;14.20;99.90;;;;;;3584302;40;20063;-70
2021/06/21 17:48:26;;;;;;;11.48;4.50;;;14.20;99.90;;;;;;3583324;40;20033;-71
2021/06/21 17:50:52;;;;;;;13.65;4.30;;;14.20;99.90;;;;;;3583855;40;20322;-70
2021/06/21 17:53:18;;;;;;;9.68;3.80;;;14.20;99.90;;;;;;3584369;40;20055;-76
2021/06/21 17:55:45;;;;;;;11.68;4.38;;;14.30;99.90;;;;;;3583039;40;20057;-69
2021/06/21 17:58:10;;;;;;;13.55;5.15;;;14.20;99.90;;;;;;3584520;40;20044;-70
2021/06/21 18:00:38;;;;;;;16.83;4.40;;;14.40;99.90;;;;;;3583552;40;20044;-70
2021/06/21 18:03:06;;;;;;;12.88;4.53;;;14.40;99.90;;;;;;3584888;40;20153;-70
2021/06/21 18:05:33;;;;;;;10.55;4.25;;;14.30;99.90;;;;;;3584123;40;20063;-69
2021/06/21 18:08:00;;;;;;;13.93;4.80;;;14.40;99.90;;;;;;3577674;40;20076;-70
2021/06/21 18:10:28;;;;;;;12.13;4.55;;;14.30;99.90;;;;;;3581452;40;20407;-70
2021/06/21 18:12:56;;;;;;;12.60;4.03;;;14.30;99.90;;;;;;3583936;40;20048;-75
2021/06/21 18:15:22;;;;;;;12.15;4.82;;;14.30;99.90;;;;;;3583137;40;20044;-70
2021/06/21 18:17:48;;;;;;;9.38;4.70;;;14.30;99.90;;;;;;3583295;40;20048;-71
2021/06/21 18:20:16;;;;;;;14.93;5.75;;;14.20;99.90;;;;;;3584268;40;20133;-70
2021/06/21 18:22:42;;;;;;;12.63;4.85;;;14.20;99.90;;;;;;3583618;40;20056;-70
2021/06/21 18:25:09;;;;;;;12.05;5.68;;;14.20;99.90;;;;;;3581152;40;20124;-70